UWLL 160900Z 28004MPS 240V320 9999 BKN030CB 18/04 Q0999 R20/120060 NOSIG RMK QFE739/0986
QNH:(hPa/inHg/mmHg)999 / 29.5 / 749
QFE:(hPa/inHg/mmHg)983 / 29.03 / 737
Temperature18
Dew Point4
Visibility> 10000
Weather
Cloud CoverBKN (3000);
Transition Height900 m./3400 ft.
Transition LevelFL50
SQUAWK